Thursday, October 30, 2014, 8:54 AM EDT

KRIC, Richmond International Airport

Location: Sandston, VA, United States Lat: 37.517
Local Time: 8:54 AM EDT (12:54 GMT) Lon: -77.317
Time Zone: US/Eastern Elev: 167 ft

Show me the last for .
Show Decoded

2014-10-30 07:54 METAR KRIC 301154Z 35009KT 10SM FEW003 SCT110 10/09 A3004 RMK AO2 SLP177 60000
                 70001 T01000089 10133 20094 53011 =
2014-10-30 07:41 METAR KRIC 301141Z 34009KT 6SM BR SCT003 BKN110 10/09 A3004 RMK AO2 =
2014-10-30 06:54 METAR KRIC 301054Z 33005KT 10SM MIFG FEW110 10/09 A3002 RMK AO2 SLP171 T01000094
                 =
2014-10-30 06:10 METAR KRIC 301010Z VRB03KT 9SM R34/1200V3500FT MIFG FEW110 11/09 A3001 RMK AO2
                 VIS E-SE 1/2 $ =
2014-10-30 05:54 METAR KRIC 300954Z COR 00000KT 9SM R34/1400V2400FT MIFG FEW110 11/09 A3001 RMK
                 AO2 SLP166 VIS E-SE 1/2 T01060094 $ =
2014-10-30 04:54 METAR KRIC 300854Z 00000KT 10SM R34/3500VP6000FT MIFG FEW110 11/10 A3000 =
2014-10-30 03:54 METAR KRIC 300754Z 00000KT 10SM FEW065 SCT120 13/11 A3000 RMK AO2 SLP164
                 T01280111 $ =
2014-10-30 02:54 METAR KRIC 300654Z 00000KT 10SM SCT060 SCT080 OVC110 13/11 A3001 RMK AO2 RAE06
                 SLP165 P0000 T01330111 =
2014-10-30 01:54 METAR KRIC 300554Z 28004KT 10SM -RA SCT055 OVC090 13/11 A3001 RMK AO2 RAB39
                 SLP167 P0000 60001 T01330111 10144 20117 53005 =
2014-10-30 00:54 METAR KRIC 300454Z 29004KT 10SM FEW050 BKN130 BKN250 12/11 A3000 RMK AO2 SLP161
                 T01220111 402560117 =
2014-10-29 23:54 METAR KRIC 300354Z 00000KT 10SM FEW070 SCT100 BKN250 12/11 A2999 RMK AO2 SLP160
                 T01220106 =
2014-10-29 22:54 METAR KRIC 300254Z 00000KT 10SM BKN070 BKN120 13/11 A3000 RMK AO2 RAE22 SLP164
                 P0000 60001 T01330106 53007 =
2014-10-29 21:54 METAR KRIC 300154Z 12003KT 10SM -RA FEW008 BKN030 OVC070 14/11 A2999 RMK AO2
                 RAE06B27 SLP161 P0000 T01390111 =
2014-10-29 20:54 METAR KRIC 300054Z 03003KT 10SM -RA SCT027 OVC060 14/10 A2998 RMK AO2 RAE14B32
                 SLP157 P0001 T01390100 =
2014-10-29 20:31 METAR KRIC 300031Z 02005KT 10SM BKN025 OVC050 14/09 A2999 RMK AO2 RAE14 P0000 =
2014-10-29 19:54 METAR KRIC 292354Z 01007KT 10SM -RA FEW040 OVC075 14/10 A2998 RMK AO2 SLP156
                 P0000 60000 T01440100 10256 20144 51023 =
2014-10-29 18:54 METAR KRIC 292254Z 02008KT 10SM -RA FEW040 OVC090 16/11 A2996 RMK AO2 RAB40
                 SLP150 P0000 T01560106 =
2014-10-29 17:54 METAR KRIC 292154Z 36009KT 10SM FEW040 BKN090 OVC200 18/10 A2995 RMK AO2 SLP145
                 T01780100 =
2014-10-29 16:54 METAR KRIC 292054Z 36011KT 10SM FEW040 BKN100 OVC250 21/12 A2991 RMK AO2 SLP132
                 T02060117 53007 =
2014-10-29 15:54 METAR KRIC 291954Z 33009KT 10SM FEW042 BKN050 BKN065 OVC300 23/14 A2989 RMK AO2
                 SLP125 T02280139 =
2014-10-29 14:54 METAR KRIC 291854Z 29010KT 10SM SCT043 BKN060 BKN300 24/14 A2988 =
2014-10-29 13:54 METAR KRIC 291754Z 26008G17KT 10SM FEW035 BKN065 OVC300 24/14 A2989 RMK AO2
                 SLP125 T02440144 10256 20167 58019 =
2014-10-29 12:54 METAR KRIC 291654Z 24009KT 10SM FEW050 BKN300 24/14 A2991 RMK AO2 SLP133
                 T02390144 =
2014-10-29 11:54 METAR KRIC 291554Z 23010KT 10SM BKN300 23/14 A2993 RMK AO2 SLP140 T02280144 =
2014-10-29 10:54 METAR KRIC 291454Z 21007KT 10SM BKN300 21/14 A2995 RMK AO2 SLP144 T02060144
                 58003 =
2014-10-29 09:54 METAR KRIC 291354Z 20008KT 10SM OVC300 19/15 A2995 RMK AO2 SLP146 T01940150 =

Support USWX by starting your Amazon purchase here.